createdAt,value
2023-06-09T00:00:56.496Z,97021.81
2023-06-09T00:03:23.508Z,97023.09
2023-06-09T00:05:50.665Z,97028.56
2023-06-09T00:08:17.658Z,97026.97
2023-06-09T00:10:44.452Z,97036.59
2023-06-09T00:13:11.558Z,97031.47
2023-06-09T00:15:40.447Z,97035.50
2023-06-09T00:18:17.112Z,97022.38
2023-06-09T00:20:44.258Z,97029.75
2023-06-09T00:23:11.020Z,97024.13
2023-06-09T00:25:37.871Z,97039.72
2023-06-09T00:28:04.803Z,97025.31
2023-06-09T00:30:39.517Z,97024.69
2023-06-09T00:33:10.710Z,97031.28
2023-06-09T00:35:37.489Z,97028.72
2023-06-09T00:38:04.289Z,97023.91
2023-06-09T00:40:31.168Z,97033.69
2023-06-09T00:42:57.976Z,97029.53
2023-06-09T00:45:24.668Z,97026.19
2023-06-09T00:47:52.674Z,97021.72
2023-06-09T00:50:21.523Z,97020.41
2023-06-09T00:52:49.934Z,97005.16
2023-06-09T00:55:19.256Z,97022.19
2023-06-09T00:57:48.331Z,97034.53
2023-06-09T01:00:17.490Z,97022.69
2023-06-09T01:02:44.722Z,97013.84
2023-06-09T01:05:13.995Z,97002.50
2023-06-09T01:08:02.752Z,97017.88
2023-06-09T01:10:58.219Z,97014.34
2023-06-09T01:14:02.199Z,97017.41
2023-06-09T01:16:45.278Z,97009.38
2023-06-09T01:19:34.200Z,97017.56
2023-06-09T01:22:07.619Z,97001.84
2023-06-09T01:24:58.615Z,97006.97
2023-06-09T01:27:27.093Z,96997.34
2023-06-09T01:29:56.375Z,97008.72
2023-06-09T01:32:25.065Z,97010.50
2023-06-09T01:34:53.990Z,97011.31
2023-06-09T01:37:21.301Z,97006.47
2023-06-09T01:39:48.343Z,97013.38
2023-06-09T01:42:14.966Z,96997.16
2023-06-09T01:44:41.686Z,96993.81
2023-06-09T01:47:08.779Z,96993.63
2023-06-09T01:50:04.633Z,97007.75
2023-06-09T01:52:50.502Z,97010.78
2023-06-09T01:55:33.735Z,97010.50
2023-06-09T01:58:10.543Z,97008.41
2023-06-09T02:00:38.339Z,97014.16
2023-06-09T02:03:10.522Z,97003.44
2023-06-09T02:05:38.380Z,97006.63
2023-06-09T02:08:05.764Z,97013.84
2023-06-09T02:10:34.018Z,97014.63
2023-06-09T02:13:19.989Z,97010.94
2023-06-09T02:15:47.570Z,97013.66
2023-06-09T02:18:16.272Z,97000.72
2023-06-09T02:20:44.039Z,97012.41
2023-06-09T02:23:11.880Z,97010.31
2023-06-09T02:25:39.125Z,97008.56
2023-06-09T02:28:07.315Z,97008.22
2023-06-09T02:30:34.434Z,97003.75
2023-06-09T02:33:01.695Z,97014.63
2023-06-09T02:35:31.342Z,97002.59
2023-06-09T02:38:02.254Z,97026.63
2023-06-09T02:40:29.148Z,97017.50
2023-06-09T02:42:55.837Z,97019.91
2023-06-09T02:45:24.638Z,97014.94
2023-06-09T02:47:52.109Z,97021.34
2023-06-09T02:50:19.396Z,97031.47
2023-06-09T02:52:46.107Z,97022.78
2023-06-09T02:55:12.959Z,97021.97
2023-06-09T02:57:39.761Z,97025.84
2023-06-09T03:00:08.834Z,97030.16
2023-06-09T03:02:35.799Z,97035.31
2023-06-09T03:05:02.809Z,97030.97
2023-06-09T03:07:29.475Z,97035.47
2023-06-09T03:09:56.156Z,97036.41
2023-06-09T03:12:23.057Z,97036.91
2023-06-09T03:14:49.727Z,97030.66
2023-06-09T03:17:18.674Z,97039.31
2023-06-09T03:19:45.689Z,97040.25
2023-06-09T03:22:12.467Z,97042.34
2023-06-09T03:24:40.299Z,97043.50
2023-06-09T03:27:07.119Z,97044.16
2023-06-09T03:29:33.768Z,97039.16
2023-06-09T03:32:00.470Z,97052.63
2023-06-09T03:34:27.271Z,97048.00
2023-06-09T03:36:53.862Z,97049.44
2023-06-09T03:39:20.598Z,97052.34
2023-06-09T03:41:47.392Z,97053.31
2023-06-09T03:44:14.094Z,97051.88
2023-06-09T03:46:40.934Z,97057.50
2023-06-09T03:49:08.068Z,97052.16
2023-06-09T03:51:34.824Z,97055.88
2023-06-09T03:54:01.553Z,97050.44
2023-06-09T03:56:28.146Z,97049.81
2023-06-09T03:58:55.263Z,97053.94
2023-06-09T04:01:22.522Z,97053.94
2023-06-09T04:03:49.510Z,97052.38
2023-06-09T04:06:16.267Z,97055.44
2023-06-09T04:08:45.545Z,97044.38
2023-06-09T04:11:12.446Z,97052.03
2023-06-09T04:13:39.057Z,97052.19
2023-06-09T04:16:06.557Z,97062.31
2023-06-09T04:18:33.315Z,97055.91
2023-06-09T04:21:00.031Z,97061.66
2023-06-09T04:23:28.862Z,97058.44
2023-06-09T04:25:56.043Z,97046.84
2023-06-09T04:28:22.711Z,97062.75
2023-06-09T04:30:51.366Z,97071.25
2023-06-09T04:33:19.572Z,97062.22
2023-06-09T04:35:48.014Z,97060.25
2023-06-09T04:38:15.361Z,97071.34
2023-06-09T04:40:42.361Z,97066.97
2023-06-09T04:43:09.293Z,97065.13
2023-06-09T04:45:36.891Z,97064.63
2023-06-09T04:48:04.270Z,97067.78
2023-06-09T04:50:33.925Z,97070.16
2023-06-09T04:53:05.176Z,97063.16
2023-06-09T04:55:32.422Z,97058.41
2023-06-09T04:57:59.078Z,97061.91
2023-06-09T05:00:28.077Z,97063.91
2023-06-09T05:02:55.952Z,97050.38
2023-06-09T05:05:22.782Z,97051.25
2023-06-09T05:07:49.715Z,97057.59
2023-06-09T05:10:16.860Z,97054.75
2023-06-09T05:12:43.680Z,97050.81
2023-06-09T05:15:11.187Z,97052.78
2023-06-09T05:17:39.133Z,97054.19
2023-06-09T05:20:09.460Z,97051.81
2023-06-09T05:22:37.496Z,97057.53
2023-06-09T05:25:04.922Z,97042.16
2023-06-09T05:27:31.562Z,97049.34
2023-06-09T05:29:58.523Z,97051.34
2023-06-09T05:32:25.419Z,97037.63
2023-06-09T05:34:52.162Z,97053.41
2023-06-09T05:37:18.819Z,97056.72
2023-06-09T05:39:45.898Z,97061.06
2023-06-09T05:42:13.739Z,97055.78
2023-06-09T05:44:40.540Z,97061.50
2023-06-09T05:47:07.451Z,97058.66
2023-06-09T05:49:35.516Z,97067.91
2023-06-09T05:52:02.948Z,97068.56
2023-06-09T05:54:29.819Z,97062.16
2023-06-09T05:56:56.520Z,97065.25
2023-06-09T05:59:24.358Z,97062.03
2023-06-09T06:01:51.980Z,97065.88
2023-06-09T06:04:18.937Z,97075.00
2023-06-09T06:06:45.830Z,97062.00
2023-06-09T06:09:12.968Z,97069.94
2023-06-09T06:11:39.930Z,97056.41
2023-06-09T06:14:06.657Z,97060.00
2023-06-09T06:16:33.421Z,97066.75
2023-06-09T06:19:00.188Z,97071.22
2023-06-09T06:21:26.889Z,97067.72
2023-06-09T06:23:53.519Z,97070.09
2023-06-09T06:26:20.202Z,97065.69
2023-06-09T06:28:47.417Z,97064.94
2023-06-09T06:31:14.988Z,97061.03
2023-06-09T06:33:42.921Z,97060.69
2023-06-09T06:36:09.999Z,97052.66
2023-06-09T06:38:36.740Z,97053.66
2023-06-09T06:41:04.867Z,97062.06
2023-06-09T06:43:31.745Z,97065.31
2023-06-09T06:45:58.532Z,97062.75
2023-06-09T06:48:27.935Z,97056.28
2023-06-09T06:50:54.975Z,97052.25
2023-06-09T06:53:21.933Z,97041.56
2023-06-09T06:55:48.636Z,97057.69
2023-06-09T06:58:15.882Z,97053.97
2023-06-09T07:00:42.682Z,97039.72
2023-06-09T07:03:10.568Z,97052.94
2023-06-09T07:05:37.747Z,97051.13
2023-06-09T07:08:04.888Z,97053.00
2023-06-09T07:10:32.317Z,97054.06
2023-06-09T07:12:59.094Z,97049.53
2023-06-09T07:15:25.916Z,97050.53
2023-06-09T07:17:52.642Z,97047.19
2023-06-09T07:20:19.381Z,97053.25
2023-06-09T07:22:51.743Z,97047.00
2023-06-09T07:25:18.736Z,97051.91
2023-06-09T07:27:45.659Z,97043.72
2023-06-09T07:30:12.886Z,97048.91
2023-06-09T07:32:42.316Z,97044.69
2023-06-09T07:35:14.423Z,97042.00
2023-06-09T07:37:43.502Z,97032.59
2023-06-09T07:40:19.204Z,97037.41
2023-06-09T07:42:48.764Z,97036.72
2023-06-09T07:45:15.778Z,97020.13
2023-06-09T07:47:42.566Z,97016.63
2023-06-09T07:50:10.142Z,97019.03
2023-06-09T07:52:39.984Z,97032.16
2023-06-09T07:55:12.399Z,97025.09
2023-06-09T07:57:41.784Z,97029.06
2023-06-09T08:00:09.395Z,97029.88
2023-06-09T08:02:43.096Z,97027.13
2023-06-09T08:05:11.104Z,97034.31
2023-06-09T08:07:38.406Z,97026.00
2023-06-09T08:10:07.624Z,97023.66
2023-06-09T08:12:36.341Z,97020.91
2023-06-09T08:15:03.102Z,97027.63
2023-06-09T08:17:29.885Z,97030.03
2023-06-09T08:19:56.843Z,97028.03
2023-06-09T08:22:23.468Z,97024.88
2023-06-09T08:24:50.450Z,97028.06
2023-06-09T08:27:17.126Z,97031.22
2023-06-09T08:29:43.740Z,97025.28
2023-06-09T08:32:10.420Z,97028.44
2023-06-09T08:34:37.148Z,97028.44
2023-06-09T08:37:04.784Z,97018.50
2023-06-09T08:39:32.021Z,97013.31
2023-06-09T08:42:01.799Z,97010.09
2023-06-09T08:44:29.850Z,97018.84
2023-06-09T08:47:03.525Z,97025.59
2023-06-09T08:49:30.860Z,97020.38
2023-06-09T08:51:59.713Z,97017.97
2023-06-09T08:54:27.449Z,97023.84
2023-06-09T08:56:54.340Z,97018.69
2023-06-09T08:59:22.998Z,97007.53
2023-06-09T09:01:51.270Z,97004.75
2023-06-09T09:04:18.823Z,97006.31
2023-06-09T09:06:47.071Z,97012.63
2023-06-09T09:09:14.015Z,97005.78
2023-06-09T09:11:41.099Z,97003.31
2023-06-09T09:14:11.710Z,96998.44
2023-06-09T09:16:38.668Z,96997.50
2023-06-09T09:19:05.895Z,96993.47
2023-06-09T09:21:35.666Z,96989.91
2023-06-09T09:24:05.738Z,96996.69
2023-06-09T09:26:33.481Z,96991.19
2023-06-09T09:29:07.482Z,96996.81
2023-06-09T09:31:37.394Z,96989.63
2023-06-09T09:34:04.538Z,96986.38
2023-06-09T09:36:32.054Z,96982.81
2023-06-09T09:39:06.297Z,96990.38
2023-06-09T09:41:33.126Z,96987.22
2023-06-09T09:43:59.718Z,96980.06
2023-06-09T09:46:26.635Z,96985.56
2023-06-09T09:48:55.686Z,96981.53
2023-06-09T09:51:22.883Z,96977.44
2023-06-09T09:53:51.668Z,96984.44
2023-06-09T09:56:22.950Z,96961.34
2023-06-09T09:58:53.737Z,96961.25
2023-06-09T10:01:28.422Z,96962.00
2023-06-09T10:03:56.494Z,96967.16
2023-06-09T10:06:28.696Z,96960.44
2023-06-09T10:08:57.352Z,96946.19
2023-06-09T10:11:29.574Z,96962.84
2023-06-09T10:13:56.273Z,96956.19
2023-06-09T10:16:24.565Z,96959.19
2023-06-09T10:18:52.035Z,96952.94
2023-06-09T10:21:19.297Z,96957.34
2023-06-09T10:23:55.556Z,96957.38
2023-06-09T10:26:27.062Z,96946.72
2023-06-09T10:28:53.697Z,96939.66
2023-06-09T10:31:22.551Z,96946.84
2023-06-09T10:33:50.192Z,96938.88
2023-06-09T10:36:17.227Z,96929.81
2023-06-09T10:38:46.702Z,96931.34
2023-06-09T10:41:29.439Z,96935.38
2023-06-09T10:44:19.177Z,96932.63
2023-06-09T10:46:51.935Z,96925.88
2023-06-09T10:49:30.676Z,96916.69
2023-06-09T10:51:57.364Z,96917.88
2023-06-09T10:54:25.723Z,96916.22
2023-06-09T10:57:04.973Z,96910.97
2023-06-09T10:59:31.806Z,96914.09
2023-06-09T11:02:05.167Z,96908.88
2023-06-09T11:04:47.982Z,96906.91
2023-06-09T11:07:27.884Z,96904.50
2023-06-09T11:09:57.534Z,96906.44
2023-06-09T11:12:39.880Z,96899.66
2023-06-09T11:15:08.868Z,96904.44
2023-06-09T11:17:43.327Z,96901.28
2023-06-09T11:20:10.433Z,96911.66
2023-06-09T11:22:43.949Z,96897.34
2023-06-09T11:25:20.537Z,96893.72
2023-06-09T11:28:10.727Z,96899.28
2023-06-09T11:31:01.743Z,96893.31
2023-06-09T11:33:46.796Z,96887.28
2023-06-09T11:36:31.885Z,96885.66
2023-06-09T11:39:08.214Z,96887.47
2023-06-09T11:41:35.154Z,96883.31
2023-06-09T11:44:01.831Z,96879.97
2023-06-09T11:46:28.700Z,96866.03
2023-06-09T11:48:59.934Z,96874.22
2023-06-09T11:51:26.812Z,96870.81
2023-06-09T11:53:53.974Z,96873.91
2023-06-09T11:56:21.149Z,96872.34
2023-06-09T11:58:47.893Z,96864.47
2023-06-09T12:01:14.542Z,96863.28
2023-06-09T12:03:41.561Z,96861.25
2023-06-09T12:06:09.314Z,96851.25
2023-06-09T12:08:35.926Z,96846.91
2023-06-09T12:11:03.476Z,96850.56
2023-06-09T12:13:30.127Z,96852.81
2023-06-09T12:15:56.874Z,96853.16
2023-06-09T12:18:23.724Z,96847.50
2023-06-09T12:20:52.284Z,96848.09
2023-06-09T12:23:19.213Z,96848.13
2023-06-09T12:25:50.929Z,96845.34
2023-06-09T12:28:27.494Z,96839.84
2023-06-09T12:30:56.022Z,96832.75
2023-06-09T12:33:31.360Z,96828.44
2023-06-09T12:36:12.212Z,96836.53
2023-06-09T12:38:45.113Z,96830.19
2023-06-09T12:41:14.030Z,96819.81
2023-06-09T12:44:01.669Z,96827.66
2023-06-09T12:46:29.802Z,96830.56
2023-06-09T12:49:04.728Z,96823.25
2023-06-09T12:51:33.154Z,96826.94
2023-06-09T12:54:00.542Z,96823.13
2023-06-09T12:56:27.844Z,96823.56
2023-06-09T12:58:55.594Z,96819.69
2023-06-09T13:01:23.596Z,96819.34
2023-06-09T13:03:51.503Z,96821.81
2023-06-09T13:06:18.830Z,96817.53
2023-06-09T13:08:46.308Z,96834.16
2023-06-09T13:11:13.433Z,96823.06
2023-06-09T13:13:46.670Z,96825.81
2023-06-09T13:16:13.357Z,96821.41
2023-06-09T13:18:40.831Z,96822.19
2023-06-09T13:21:07.905Z,96822.97
2023-06-09T13:23:34.685Z,96816.19
2023-06-09T13:26:01.659Z,96818.94
2023-06-09T13:28:28.787Z,96818.94
2023-06-09T13:30:55.692Z,96816.97
2023-06-09T13:33:22.729Z,96813.00
2023-06-09T13:35:50.049Z,96815.78
2023-06-09T13:38:16.737Z,96813.38
2023-06-09T13:40:46.673Z,96806.25
2023-06-09T13:43:17.424Z,96806.25
2023-06-09T13:45:44.378Z,96801.47
2023-06-09T13:48:12.354Z,96802.66
2023-06-09T13:50:40.390Z,96805.78
2023-06-09T13:53:10.628Z,96814.84
2023-06-09T13:55:37.348Z,96816.78
2023-06-09T13:58:04.425Z,96810.41
2023-06-09T14:00:31.022Z,96817.53
2023-06-09T14:02:57.957Z,96812.75
2023-06-09T14:05:26.235Z,96804.03
2023-06-09T14:07:53.057Z,96813.13
2023-06-09T14:10:20.586Z,96824.22
2023-06-09T14:12:49.665Z,96819.44
2023-06-09T14:17:50.930Z,96811.75
2023-06-09T14:20:22.425Z,96815.28
2023-06-09T14:22:51.150Z,96804.19
2023-06-09T14:25:27.429Z,96806.22
2023-06-09T14:27:55.008Z,96818.53
2023-06-09T14:30:22.895Z,96818.06
2023-06-09T14:32:52.485Z,96810.47
2023-06-09T14:35:23.849Z,96822.63
2023-06-09T14:37:52.561Z,96834.81
2023-06-09T14:40:19.723Z,96830.81
2023-06-09T14:42:50.073Z,96835.53
2023-06-09T14:45:24.236Z,96827.22
2023-06-09T14:48:01.630Z,96837.88
2023-06-09T14:50:32.835Z,96841.03
2023-06-09T14:52:59.994Z,96835.13
2023-06-09T14:55:31.766Z,96837.44
2023-06-09T14:58:01.210Z,96838.59
2023-06-09T15:00:28.888Z,96839.34
2023-06-09T15:02:57.615Z,96839.00
2023-06-09T15:05:27.510Z,96839.22
2023-06-09T15:07:56.240Z,96832.50
2023-06-09T15:10:27.340Z,96838.34
2023-06-09T15:12:54.364Z,96838.72
2023-06-09T15:15:23.486Z,96838.19
2023-06-09T15:17:51.012Z,96832.28
2023-06-09T15:20:18.456Z,96837.03
2023-06-09T15:22:45.166Z,96844.56
2023-06-09T15:25:12.214Z,96855.19
2023-06-09T15:27:41.237Z,96844.88
2023-06-09T15:30:08.801Z,96853.66
2023-06-09T15:32:35.866Z,96853.28
2023-06-09T15:35:02.622Z,96855.25
2023-06-09T15:37:29.277Z,96846.91
2023-06-09T15:39:56.704Z,96833.00
2023-06-09T15:42:23.992Z,96841.25
2023-06-09T15:44:50.693Z,96837.28
2023-06-09T15:47:17.444Z,96836.09
2023-06-09T15:49:44.425Z,96836.13
2023-06-09T15:52:11.088Z,96828.88
2023-06-09T15:54:37.700Z,96828.88
2023-06-09T15:57:04.963Z,96832.03
2023-06-09T15:59:31.673Z,96844.94
2023-06-09T16:01:58.383Z,96830.28
2023-06-09T16:04:25.246Z,96833.78
2023-06-09T16:06:52.697Z,96838.06
2023-06-09T16:09:19.558Z,96846.75
2023-06-09T16:11:46.441Z,96844.63
2023-06-09T16:14:13.142Z,96853.66
2023-06-09T16:16:39.837Z,96853.19
2023-06-09T16:19:06.567Z,96840.16
2023-06-09T16:21:34.235Z,96820.44
2023-06-09T16:24:02.995Z,96813.44
2023-06-09T16:26:29.739Z,96817.00
2023-06-09T16:28:56.394Z,96815.06
2023-06-09T16:31:23.078Z,96807.59
2023-06-09T16:33:49.793Z,96802.50
2023-06-09T16:36:16.506Z,96796.63
2023-06-09T16:38:43.625Z,96789.09
2023-06-09T16:41:10.963Z,96784.72
2023-06-09T16:43:40.836Z,96771.47
2023-06-09T16:46:07.738Z,96761.47
2023-06-09T16:48:37.391Z,96768.13
2023-06-09T16:51:04.594Z,96775.16
2023-06-09T16:53:31.680Z,96776.63
2023-06-09T16:55:59.032Z,96781.59
2023-06-09T16:58:25.717Z,96800.06
2023-06-09T17:00:52.375Z,96817.00
2023-06-09T17:03:19.274Z,96812.94
2023-06-09T17:05:46.003Z,96827.56
2023-06-09T17:08:13.060Z,96838.66
2023-06-09T17:10:39.939Z,96850.13
2023-06-09T17:13:06.965Z,96855.25
2023-06-09T17:15:33.991Z,96854.09
2023-06-09T17:18:01.135Z,96860.03
2023-06-09T17:20:28.806Z,96851.66
2023-06-09T17:22:55.786Z,96853.97
2023-06-09T17:25:22.964Z,96851.22
2023-06-09T17:27:49.807Z,96843.59
2023-06-09T17:30:16.628Z,96842.56
2023-06-09T17:32:45.024Z,96850.25
2023-06-09T17:35:21.642Z,96850.91
2023-06-09T17:37:48.426Z,96847.75
2023-06-09T17:40:15.522Z,96848.16
2023-06-09T17:42:42.548Z,96846.97
2023-06-09T17:45:11.461Z,96850.06
2023-06-09T17:47:39.170Z,96853.19
2023-06-09T17:50:07.338Z,96857.91
2023-06-09T17:52:35.508Z,96865.69
2023-06-09T17:55:04.576Z,96852.09
2023-06-09T17:57:32.082Z,96882.00
2023-06-09T18:00:00.478Z,96877.59
2023-06-09T18:02:27.649Z,96879.84
2023-06-09T18:04:54.567Z,96879.72
2023-06-09T18:07:21.347Z,96872.84
2023-06-09T18:09:48.054Z,96871.34
2023-06-09T18:12:14.935Z,96863.69
2023-06-09T18:14:41.890Z,96867.13
2023-06-09T18:17:08.614Z,96886.38
2023-06-09T18:19:36.889Z,96880.28
2023-06-09T18:22:04.364Z,96901.03
2023-06-09T18:24:31.116Z,96898.50
2023-06-09T18:26:58.116Z,96887.00
2023-06-09T18:29:24.813Z,96892.69
2023-06-09T18:31:51.419Z,96904.41
2023-06-09T18:34:18.124Z,96910.19
2023-06-09T18:36:45.078Z,96908.06
2023-06-09T18:39:11.710Z,96909.25
2023-06-09T18:41:38.487Z,96909.59
2023-06-09T18:44:17.712Z,96907.13
2023-06-09T18:46:45.262Z,96914.56
2023-06-09T18:49:12.326Z,96912.44
2023-06-09T18:51:39.180Z,96915.47
2023-06-09T18:54:06.110Z,96914.59
2023-06-09T18:56:33.152Z,96919.31
2023-06-09T18:59:00.297Z,96911.19
2023-06-09T19:01:27.465Z,96909.88
2023-06-09T19:03:54.406Z,96914.75
2023-06-09T19:06:21.288Z,96922.53
2023-06-09T19:08:48.198Z,96919.25
2023-06-09T19:11:15.026Z,96926.84
2023-06-09T19:13:41.914Z,96930.94
2023-06-09T19:16:08.614Z,96940.25
2023-06-09T19:18:35.398Z,96950.41
2023-06-09T19:21:02.984Z,96938.97
2023-06-09T19:23:29.697Z,96938.09
2023-06-09T19:25:56.535Z,96954.56
2023-06-09T19:28:23.549Z,96957.56
2023-06-09T19:30:50.616Z,96949.13
2023-06-09T19:33:17.398Z,96949.13
2023-06-09T19:35:44.181Z,96940.78
2023-06-09T19:38:11.140Z,96935.66
2023-06-09T19:40:37.844Z,96932.13
2023-06-09T19:43:04.540Z,96902.38
2023-06-09T19:45:31.192Z,96911.31
2023-06-09T19:47:57.885Z,96926.19
2023-06-09T19:50:24.526Z,96921.75
2023-06-09T19:52:52.225Z,96918.22
2023-06-09T19:55:18.988Z,96907.25
2023-06-09T19:57:45.873Z,96909.91
2023-06-09T20:00:15.179Z,96917.22
2023-06-09T20:02:42.474Z,96900.56
2023-06-09T20:05:09.870Z,96884.59
2023-06-09T20:07:36.773Z,96912.03
2023-06-09T20:10:03.429Z,96907.91
2023-06-09T20:12:30.184Z,96906.75
2023-06-09T20:14:56.904Z,96889.19
2023-06-09T20:17:23.814Z,96895.72
2023-06-09T20:19:50.819Z,96883.75
2023-06-09T20:22:19.209Z,96891.19
2023-06-09T20:24:46.112Z,96884.66
2023-06-09T20:27:12.959Z,96890.13
2023-06-09T20:29:39.734Z,96887.75
2023-06-09T20:32:07.067Z,96889.34
2023-06-09T20:34:33.766Z,96872.34
2023-06-09T20:37:00.783Z,96869.03
2023-06-09T20:39:27.417Z,96888.59
2023-06-09T20:41:54.249Z,96890.41
2023-06-09T20:44:21.524Z,96874.09
2023-06-09T20:46:48.393Z,96872.84
2023-06-09T20:49:16.895Z,96883.91
2023-06-09T20:51:44.132Z,96881.41
2023-06-09T20:54:16.076Z,96877.88
2023-06-09T20:56:42.996Z,96882.06
2023-06-09T20:59:09.770Z,96868.59
2023-06-09T21:01:37.148Z,96883.78
2023-06-09T21:04:04.874Z,96888.72
2023-06-09T21:06:35.847Z,96879.25
2023-06-09T21:09:05.353Z,96887.00
2023-06-09T21:11:32.407Z,96895.44
2023-06-09T21:13:59.392Z,96893.38
2023-06-09T21:16:26.370Z,96899.22
2023-06-09T21:18:53.105Z,96893.50
2023-06-09T21:21:19.814Z,96896.25
2023-06-09T21:23:46.581Z,96891.81
2023-06-09T21:26:13.604Z,96895.66
2023-06-09T21:28:43.081Z,96902.97
2023-06-09T21:31:11.957Z,96907.28
2023-06-09T21:33:39.039Z,96895.91
2023-06-09T21:36:06.651Z,96899.75
2023-06-09T21:38:40.492Z,96912.31
2023-06-09T21:41:07.681Z,96909.91
2023-06-09T21:43:34.416Z,96904.44
2023-06-09T21:46:08.518Z,96906.38
2023-06-09T21:48:35.534Z,96904.44
2023-06-09T21:51:02.158Z,96903.16
2023-06-09T21:53:35.206Z,96897.13
2023-06-09T21:56:02.056Z,96908.19
2023-06-09T21:58:28.839Z,96909.47
2023-06-09T22:01:02.449Z,96904.19
2023-06-09T22:03:29.299Z,96896.34
2023-06-09T22:06:16.093Z,96910.59
2023-06-09T22:08:49.623Z,96905.91
2023-06-09T22:11:23.398Z,96909.78
2023-06-09T22:13:50.149Z,96891.53
2023-06-09T22:16:17.066Z,96901.00
2023-06-09T22:18:52.036Z,96904.06
2023-06-09T22:21:18.892Z,96903.63
2023-06-09T22:23:45.601Z,96902.47
2023-06-09T22:26:19.187Z,96892.88
2023-06-09T22:28:46.056Z,96891.53
2023-06-09T22:31:14.479Z,96889.03
2023-06-09T22:33:48.078Z,96885.03
2023-06-09T22:36:15.746Z,96883.97
2023-06-09T22:38:42.376Z,96866.66
2023-06-09T22:41:16.049Z,96872.44
2023-06-09T22:43:42.711Z,96872.13
2023-06-09T22:46:09.383Z,96872.56
2023-06-09T22:48:45.114Z,96879.31
2023-06-09T22:51:11.819Z,96877.91
2023-06-09T22:53:38.485Z,96860.91
2023-06-09T22:56:12.242Z,96867.75
2023-06-09T22:58:39.154Z,96879.97
2023-06-09T23:01:06.042Z,96873.59
2023-06-09T23:03:42.051Z,96866.38
2023-06-09T23:06:18.425Z,96876.78
2023-06-09T23:08:59.045Z,96877.59
2023-06-09T23:11:26.578Z,96880.22
2023-06-09T23:13:54.251Z,96869.44
2023-06-09T23:16:28.055Z,96868.75
2023-06-09T23:18:54.975Z,96875.81
2023-06-09T23:21:23.293Z,96860.91
2023-06-09T23:24:00.108Z,96864.63
2023-06-09T23:26:27.504Z,96874.34
2023-06-09T23:28:54.078Z,96870.69
2023-06-09T23:31:28.010Z,96868.63
2023-06-09T23:33:54.720Z,96869.75
2023-06-09T23:36:21.422Z,96869.28
2023-06-09T23:38:55.176Z,96871.22
2023-06-09T23:41:22.585Z,96877.38
2023-06-09T23:43:49.232Z,96863.91
2023-06-09T23:46:23.619Z,96871.09
2023-06-09T23:48:50.995Z,96861.50
2023-06-09T23:51:18.438Z,96861.59
2023-06-09T23:53:52.183Z,96869.44
2023-06-09T23:56:19.169Z,96868.66
2023-06-09T23:58:45.832Z,96857.25
